Time;durP1;ratioP1;P1;durP2;ratioP2;P2;SDS_P1;SDS_P2;PMS_P1;PMS_P2;Temp;Humidity;BMP_temperature;BMP_pressure;BME280_temperature;BME280_humidity;BME280_pressure;Samples;Min_cycle;Max_cycle;Signal;HPM_P1;HPM_P2
2022/07/01 05:22:39;;;;;;;;;;;;;;;19.28;81.14;97100.94;4227037;27;5634;-80
2022/07/01 05:24:42;;;;;;;;;;;;;;;19.41;80.89;97103.31;4220847;27;5783;-82
2022/07/01 05:26:47;;;;;;;;;;;;;;;19.55;80.53;97114.53;4228654;27;5867;-80
2022/07/01 05:28:50;;;;;;;;;;;;;;;19.63;80.00;97120.34;4224399;28;5822;-81
2022/07/01 05:30:53;;;;;;;;;;;;;;;19.76;79.53;97101.25;4223322;28;6024;-81
2022/07/01 05:32:57;;;;;;;;;;;;;;;19.80;79.32;97092.69;4231513;28;5848;-81
2022/07/01 05:35:00;;;;;;;;;;;;;;;19.88;78.90;97094.97;4230808;28;5683;-81
2022/07/01 05:37:04;;;;;;;;;;;;;;;19.90;78.63;97090.19;4227375;27;5661;-80
2022/07/01 05:39:06;;;;;;;;;;;;;;;19.88;78.69;97084.25;4226217;27;6336;-81
2022/07/01 05:41:09;;;;;;;;;;;;;;;19.88;78.70;97093.13;4230663;27;5664;-81
2022/07/01 05:43:12;;;;;;;;;;;;;;;19.96;78.41;97094.59;4220113;28;5691;-80
2022/07/01 05:45:15;;;;;;;;;;;;;;;20.06;77.92;97097.44;4214001;28;5772;-80
2022/07/01 05:47:18;;;;;;;;;;;;;;;20.09;77.52;97099.59;4214040;28;5078;-78
2022/07/01 05:49:23;;;;;;;;;;;;;;;20.04;77.33;97096.84;4215066;28;5692;-80
2022/07/01 05:51:26;;;;;;;;;;;;;;;20.05;77.20;97101.16;4214951;28;5086;-80
2022/07/01 05:53:29;;;;;;;;;;;;;;;20.01;77.20;97098.16;4214204;28;5787;-80
2022/07/01 05:55:32;;;;;;;;;;;;;;;19.98;77.26;97108.56;4214813;28;5054;-80
2022/07/01 05:57:35;;;;;;;;;;;;;;;20.00;77.10;97106.44;4214736;28;5780;-80
2022/07/01 05:59:38;;;;;;;;;;;;;;;20.04;76.83;97112.94;4213835;28;5689;-79
2022/07/01 06:01:41;;;;;;;;;;;;;;;20.05;76.28;97101.16;4216900;28;5797;-79
2022/07/01 06:03:44;;;;;;;;;;;;;;;20.05;76.37;97106.53;4221688;28;5723;-80
2022/07/01 06:05:48;;;;;;;;;;;;;;;20.04;75.91;97104.88;4229809;28;5699;-80
2022/07/01 06:07:51;;;;;;;;;;;;;;;20.04;75.99;97097.66;4230317;28;5666;-80
2022/07/01 06:09:54;;;;;;;;;;;;;;;20.04;75.91;97086.91;4229349;28;5719;-80
2022/07/01 06:11:57;;;;;;;;;;;;;;;20.09;75.82;97094.25;4227777;27;5874;-80
2022/07/01 06:14:00;;;;;;;;;;;;;;;20.16;75.31;97092.22;4230948;28;5664;-80
2022/07/01 06:16:03;;;;;;;;;;;;;;;20.24;75.07;97089.06;4219497;28;5770;-79
2022/07/01 06:18:06;;;;;;;;;;;;;;;20.27;74.41;97091.28;4212466;28;5789;-80
2022/07/01 06:20:10;;;;;;;;;;;;;;;20.23;74.74;97100.88;4219384;28;5664;-81
2022/07/01 06:22:16;;;;;;;;;;;;;;;20.21;74.80;97102.19;4223955;27;7232;-80
2022/07/01 06:24:19;;;;;;;;;;;;;;;20.23;74.42;97110.81;4201332;28;5711;-81
2022/07/01 06:26:22;;;;;;;;;;;;;;;20.27;74.15;97106.56;4203073;28;5681;-80
2022/07/01 06:28:29;;;;;;;;;;;;;;;20.28;73.91;97108.22;4208280;28;5754;-81
2022/07/01 06:30:32;;;;;;;;;;;;;;;20.29;73.83;97113.34;4218943;28;5829;-80
2022/07/01 06:32:37;;;;;;;;;;;;;;;20.27;73.57;97107.41;4216614;28;6438;-81
2022/07/01 06:34:40;;;;;;;;;;;;;;;20.28;73.50;97109.03;4218154;28;5801;-81
2022/07/01 06:36:43;;;;;;;;;;;;;;;20.29;73.32;97109.84;4207110;28;5724;-81
2022/07/01 06:38:49;;;;;;;;;;;;;;;20.27;73.49;97107.41;4203855;28;5724;-81
2022/07/01 06:43:10;;;;;;;;;;;;;;;20.40;72.61;97108.91;4218015;28;5655;-70
2022/07/01 06:45:13;;;;;;;;;;;;;;;20.38;72.83;97107.50;4214108;28;5862;-69
2022/07/01 06:47:16;;;;;;;;;;;;;;;20.36;72.49;97115.81;4215626;28;5758;-76
2022/07/01 06:49:18;;;;;;;;;;;;;;;20.34;72.36;97107.22;4219364;28;5667;-77
2022/07/01 06:51:21;;;;;;;;;;;;;;;20.28;72.30;97103.66;4204983;28;5692;-74
2022/07/01 06:53:25;;;;;;;;;;;;;;;20.26;71.92;97100.38;4216002;28;6415;-77
2022/07/01 06:55:29;;;;;;;;;;;;;;;20.28;71.63;97109.03;4219848;28;5664;-77
2022/07/01 06:57:32;;;;;;;;;;;;;;;20.28;71.58;97109.03;4216738;28;5708;-81
2022/07/01 06:59:35;;;;;;;;;;;;;;;20.24;71.48;97101.69;4219160;28;6514;-82
2022/07/01 07:01:38;;;;;;;;;;;;;;;20.24;71.28;97102.50;4218227;28;5671;-93
2022/07/01 07:03:41;;;;;;;;;;;;;;;20.17;71.01;97104.56;4216693;28;5663;-90
2022/07/01 07:05:44;;;;;;;;;;;;;;;20.11;70.97;97108.22;4225184;28;5765;-85
2022/07/01 07:07:47;;;;;;;;;;;;;;;19.99;71.09;97105.63;4215004;28;5783;-87
2022/07/01 07:09:50;;;;;;;;;;;;;;;20.03;70.66;97097.91;4212549;28;5697;-75
2022/07/01 07:11:56;;;;;;;;;;;;;;;20.05;70.46;97101.16;4209402;28;5720;-81
2022/07/01 07:13:59;;;;;;;;;;;;;;;19.96;70.25;97108.00;4211771;28;5667;-78
2022/07/01 07:16:02;;;;;;;;;;;;;;;19.80;70.18;97100.75;4220270;28;5679;-80
2022/07/01 07:18:07;;;;;;;;;;;;;;;19.74;69.89;97106.06;4219888;28;5766;-84
2022/07/01 07:20:11;;;;;;;;;;;;;;;19.77;69.76;97108.25;4215718;28;5704;-73
2022/07/01 07:22:13;;;;;;;;;;;;;;;19.69;69.48;97115.88;4207928;28;5696;-74
2022/07/01 07:24:17;;;;;;;;;;;;;;;19.75;69.58;97109.53;4216602;28;5374;-75
2022/07/01 07:26:21;;;;;;;;;;;;;;;19.73;69.29;97111.66;4212530;28;5630;-77
2022/07/01 07:28:26;;;;;;;;;;;;;;;19.69;68.83;97119.38;4219247;28;5683;-73
2022/07/01 07:30:30;;;;;;;;;;;;;;;19.71;68.53;97125.31;4219847;28;5659;-77
2022/07/01 07:32:33;;;;;;;;;;;;;;;19.68;68.51;97117.75;4218414;28;5086;-67
2022/07/01 07:34:37;;;;;;;;;;;;;;;19.61;68.08;97125.16;4218339;28;5774;-70
2022/07/01 07:36:42;;;;;;;;;;;;;;;19.60;68.23;97122.72;4223544;28;5804;-74
2022/07/01 07:38:45;;;;;;;;;;;;;;;19.61;67.97;97121.66;4218686;28;7405;-73
2022/07/01 07:40:48;;;;;;;;;;;;;;;19.66;67.79;97127.91;4207075;28;5800;-74
2022/07/01 07:42:51;;;;;;;;;;;;;;;19.58;67.42;97136.34;4206422;28;6412;-74
2022/07/01 07:44:56;;;;;;;;;;;;;;;19.49;67.63;97138.59;4222241;28;5737;-75
2022/07/01 07:46:59;;;;;;;;;;;;;;;19.46;67.31;97135.56;4213624;27;5693;-74
2022/07/01 07:49:03;;;;;;;;;;;;;;;19.48;67.29;97131.59;4218574;28;5660;-75
2022/07/01 07:51:06;;;;;;;;;;;;;;;19.49;66.94;97129.72;4221054;28;5796;-73
2022/07/01 07:53:10;;;;;;;;;;;;;;;19.47;66.83;97129.94;4224401;28;5162;-74
2022/07/01 07:55:13;;;;;;;;;;;;;;;19.53;66.92;97128.19;4206021;27;5766;-74
2022/07/01 07:57:16;;;;;;;;;;;;;;;19.60;66.53;97118.16;4216365;28;5699;-74
2022/07/01 07:59:19;;;;;;;;;;;;;;;19.66;66.51;97127.91;4217916;28;5745;-74
2022/07/01 08:01:23;;;;;;;;;;;;;;;19.65;66.44;97112.06;4220363;28;5844;-76
2022/07/01 08:03:27;;;;;;;;;;;;;;;19.73;66.06;97119.72;4215611;28;5902;-77
2022/07/01 08:05:30;;;;;;;;;;;;;;;19.85;65.68;97120.44;4208743;28;5752;-76
2022/07/01 08:07:36;;;;;;;;;;;;;;;19.95;65.74;97127.84;4214690;28;5922;-72
2022/07/01 08:09:41;;;;;;;;;;;;;;;20.00;65.09;97127.91;4225377;28;5796;-72
2022/07/01 08:11:44;;;;;;;;;;;;;;;20.01;64.78;97124.16;4220070;28;5756;-69
2022/07/01 08:13:47;;;;;;;;;;;;;;;19.94;65.33;97123.53;4217634;27;5631;-70
2022/07/01 08:15:50;;;;;;;;;;;;;;;19.93;64.82;97130.78;4208830;28;5775;-69
2022/07/01 08:17:55;;;;;;;;;;;;;;;19.89;64.79;97126.94;4200697;28;5720;-73
2022/07/01 08:19:58;;;;;;;;;;;;;;;19.90;64.94;97141.16;4228006;27;5629;-71
2022/07/01 08:22:01;;;;;;;;;;;;;;;19.97;64.79;97128.41;4214809;27;6477;-74
2022/07/01 08:24:06;;;;;;;;;;;;;;;20.10;64.54;97138.00;4225520;28;5834;-70
2022/07/01 08:26:11;;;;;;;;;;;;;;;20.20;63.89;97136.28;4206109;28;5654;-70
2022/07/01 08:28:14;;;;;;;;;;;;;;;20.20;63.92;97147.00;4203383;28;5779;-71
2022/07/01 08:30:17;;;;;;;;;;;;;;;20.07;63.84;97147.34;4206104;28;5630;-73
2022/07/01 08:32:22;;;;;;;;;;;;;;;20.03;63.97;97154.25;4216741;28;6342;-71
2022/07/01 08:34:26;;;;;;;;;;;;;;;19.99;64.08;97147.75;4212110;28;5758;-72
2022/07/01 08:36:29;;;;;;;;;;;;;;;20.00;63.79;97158.25;4201001;28;5771;-72
2022/07/01 08:38:32;;;;;;;;;;;;;;;20.00;63.73;97157.44;4204056;28;5701;-71
2022/07/01 08:40:36;;;;;;;;;;;;;;;20.05;63.91;97154.84;4214591;28;5797;-72
2022/07/01 08:42:39;;;;;;;;;;;;;;;20.00;63.45;97152.06;4217700;28;5658;-72
2022/07/01 08:44:42;;;;;;;;;;;;;;;20.01;63.32;97162.53;4214968;28;5774;-71
2022/07/01 08:46:45;;;;;;;;;;;;;;;20.09;63.28;97169.38;4222580;28;6043;-69
2022/07/01 08:48:50;;;;;;;;;;;;;;;20.01;62.98;97170.59;4226170;28;5858;-66
2022/07/01 08:50:55;;;;;;;;;;;;;;;19.95;63.07;97168.91;4207701;28;5678;-71
2022/07/01 08:52:58;;;;;;;;;;;;;;;19.96;62.74;97175.09;4217020;28;5687;-70
2022/07/01 08:55:01;;;;;;;;;;;;;;;20.08;62.41;97169.63;4217292;28;5646;-70
2022/07/01 08:57:06;;;;;;;;;;;;;;;20.21;62.59;97170.13;4217645;28;5765;-70
2022/07/01 08:59:13;;;;;;;;;;;;;;;20.34;62.09;97177.81;4212229;28;5763;-71
2022/07/01 09:01:20;;;;;;;;;;;;;;;20.37;61.91;97176.50;4213872;28;5662;-67
2022/07/01 09:03:23;;;;;;;;;;;;;;;20.36;61.81;97183.75;4228299;28;5926;-69
2022/07/01 09:05:28;;;;;;;;;;;;;;;20.18;61.71;97183.22;4206874;28;7300;-74
2022/07/01 09:07:34;;;;;;;;;;;;;;;20.04;61.73;97191.56;4215536;28;5762;-75
2022/07/01 09:09:44;;;;;;;;;;;;;;;20.12;61.78;97194.91;4208315;28;5838;-70
2022/07/01 09:11:53;;;;;;;;;;;;;;;20.22;61.29;97190.53;4218359;28;6327;-75
2022/07/01 09:14:07;;;;;;;;;;;;;;;20.28;61.33;97189.56;4204780;28;5641;-72
2022/07/01 09:16:14;;;;;;;;;;;;;;;20.42;61.27;97190.06;4221187;28;5869;-70
2022/07/01 09:18:18;;;;;;;;;;;;;;;20.53;61.03;97191.84;4206443;28;5708;-75
2022/07/01 09:20:27;;;;;;;;;;;;;;;20.53;60.77;97193.72;4200816;28;5696;-71
2022/07/01 09:22:30;;;;;;;;;;;;;;;20.54;60.92;97195.34;4202668;28;5713;-75
2022/07/01 09:24:36;;;;;;;;;;;;;;;20.61;60.60;97196.78;4205512;28;5819;-76
2022/07/01 09:26:40;;;;;;;;;;;;;;;20.63;60.47;97200.03;4225242;27;5683;-78
2022/07/01 09:28:42;;;;;;;;;;;;;;;20.68;60.55;97199.28;4203751;28;5701;-72
2022/07/01 09:30:47;;;;;;;;;;;;;;;20.79;60.04;97213.69;4210233;28;5814;-75
2022/07/01 09:33:05;;;;;;;;;;;;;;;20.84;59.78;97203.81;4216728;28;5734;-69
2022/07/01 09:35:09;;;;;;;;;;;;;;;20.89;59.85;97211.94;4216466;28;5791;-69
2022/07/01 09:37:15;;;;;;;;;;;;;;;20.97;59.89;97202.66;4234188;27;6364;-69
2022/07/01 09:39:18;;;;;;;;;;;;;;;21.06;59.50;97205.69;4210927;28;5743;-74
2022/07/01 09:41:41;;;;;;;;;;;;;;;21.00;59.25;97204.81;4216375;28;5691;-75
2022/07/01 09:43:44;;;;;;;;;;;;;;;21.01;59.08;97197.56;4217840;28;5694;-78
2022/07/01 09:45:58;;;;;;;;;;;;;;;21.05;58.62;97196.81;4230400;28;7188;-77
2022/07/01 09:48:01;;;;;;;;;;;;;;;20.97;58.90;97204.53;4215966;27;5791;-78
2022/07/01 09:50:08;;;;;;;;;;;;;;;20.97;58.69;97201.84;4201241;28;6425;-78
2022/07/01 09:52:11;;;;;;;;;;;;;;;21.01;58.20;97200.25;4213051;28;5683;-77
2022/07/01 09:54:15;;;;;;;;;;;;;;;21.12;58.14;97204.72;4221787;28;5848;-73
2022/07/01 09:56:19;;;;;;;;;;;;;;;21.23;58.38;97201.06;4217004;28;5684;-74
2022/07/01 09:58:24;;;;;;;;;;;;;;;21.35;57.70;97201.78;4222404;28;5714;-74
2022/07/01 10:00:28;;;;;;;;;;;;;;;21.38;57.47;97195.91;4213498;28;6167;-73
2022/07/01 10:02:35;;;;;;;;;;;;;;;21.47;57.46;97202.47;4201980;28;5791;-72
2022/07/01 10:04:41;;;;;;;;;;;;;;;21.59;57.48;97205.00;4225342;28;5748;-73
2022/07/01 10:07:19;;;;;;;;;;;;;;;21.70;57.26;97206.72;4225808;28;5811;-78
2022/07/01 10:10:18;;;;;;;;;;;;;;;21.77;56.69;97203.84;4162378;28;5871;-78
2022/07/01 10:12:34;;;;;;;;;;;;;;;21.86;56.60;97210.41;4153044;28;5305;-77
2022/07/01 10:14:43;;;;;;;;;;;;;;;21.97;56.50;97212.13;4148620;28;5841;-76
2022/07/01 10:16:48;;;;;;;;;;;;;;;22.07;56.52;97206.81;4164277;28;5846;-74
2022/07/01 10:18:51;;;;;;;;;;;;;;;22.18;56.34;97212.31;4151152;28;5923;-74
2022/07/01 10:20:56;;;;;;;;;;;;;;;22.24;56.16;97208.59;4149388;28;5899;-74
2022/07/01 10:23:04;;;;;;;;;;;;;;;22.32;55.78;97208.13;4162834;28;5866;-74
2022/07/01 10:25:33;;;;;;;;;;;;;;;22.38;55.88;97212.47;4154630;28;7180;-74
2022/07/01 10:27:37;;;;;;;;;;;;;;;22.46;55.87;97219.25;4163861;28;5816;-73
2022/07/01 10:29:41;;;;;;;;;;;;;;;22.54;55.76;97210.72;4159505;28;5859;-75
2022/07/01 10:31:44;;;;;;;;;;;;;;;22.63;55.62;97209.13;4151400;28;5877;-74
2022/07/01 10:33:50;;;;;;;;;;;;;;;22.66;55.27;97203.25;4165172;28;5842;-74
2022/07/01 10:35:53;;;;;;;;;;;;;;;22.67;55.58;97204.88;4178872;28;5840;-73
2022/07/01 10:38:00;;;;;;;;;;;;;;;22.65;55.38;97205.13;4179614;28;5832;-73
2022/07/01 10:40:06;;;;;;;;;;;;;;;22.61;55.19;97206.69;4166831;28;5880;-73
2022/07/01 10:42:09;;;;;;;;;;;;;;;22.56;55.23;97214.75;4135350;28;5931;-71
2022/07/01 10:44:21;;;;;;;;;;;;;;;22.52;55.22;97213.63;4164829;28;5848;-71
2022/07/01 10:46:43;;;;;;;;;;;;;;;22.50;55.13;97210.41;4177776;28;5804;-71
2022/07/01 10:48:49;;;;;;;;;;;;;;;22.52;54.92;97221.72;4209556;28;5790;-74
2022/07/01 10:50:53;;;;;;;;;;;;;;;22.56;54.78;97220.16;4229712;28;5728;-76
2022/07/01 10:53:01;;;;;;;;;;;;;;;22.57;54.63;97223.66;4213178;28;5831;-75
2022/07/01 10:55:06;;;;;;;;;;;;;;;22.59;54.59;97219.63;4207168;28;5752;-77
2022/07/01 10:57:26;;;;;;;;;;;;;;;22.58;54.00;97231.47;4233136;28;5753;-78
2022/07/01 10:59:30;;;;;;;;;;;;;;;22.54;54.05;97232.28;4226531;28;5834;-75
2022/07/01 11:01:33;;;;;;;;;;;;;;;22.57;54.05;97231.75;4215929;28;5765;-73
2022/07/01 11:03:39;;;;;;;;;;;;;;;22.57;54.40;97237.94;4204652;28;5815;-75
2022/07/01 11:05:45;;;;;;;;;;;;;;;22.54;53.86;97238.47;4198768;28;5817;-74
2022/07/01 11:07:48;;;;;;;;;;;;;;;22.53;53.79;97242.19;4206956;28;6609;-72
2022/07/01 11:09:50;;;;;;;;;;;;;;;22.58;54.07;97239.56;4214651;28;6498;-69
2022/07/01 11:11:53;;;;;;;;;;;;;;;22.67;53.76;97235.31;4216720;28;5423;-67
2022/07/01 11:13:58;;;;;;;;;;;;;;;22.68;53.32;97238.81;4232205;28;5744;-68
2022/07/01 11:16:01;;;;;;;;;;;;;;;22.73;53.76;97238.84;4207456;28;5826;-72
2022/07/01 11:18:05;;;;;;;;;;;;;;;22.74;53.59;97239.66;4212570;28;5806;-72
2022/07/01 11:20:11;;;;;;;;;;;;;;;22.76;53.17;97240.19;4215646;28;5774;-73
2022/07/01 11:22:19;;;;;;;;;;;;;;;22.74;53.03;97237.75;4214719;28;5675;-73
2022/07/01 11:24:23;;;;;;;;;;;;;;;22.72;52.95;97233.72;4230398;28;5748;-73
2022/07/01 11:26:26;;;;;;;;;;;;;;;22.66;52.94;97231.00;4216717;28;5788;-73
2022/07/01 11:28:38;;;;;;;;;;;;;;;22.68;53.04;97233.44;4211519;28;5811;-73
2022/07/01 11:30:41;;;;;;;;;;;;;;;22.73;52.53;97236.16;4214246;28;5754;-73
2022/07/01 11:32:45;;;;;;;;;;;;;;;22.73;52.43;97230.75;4199558;28;5102;-73
2022/07/01 11:34:48;;;;;;;;;;;;;;;22.73;52.87;97236.16;4203942;28;5796;-73
2022/07/01 11:39:23;;;;;;;;;;;;;;;22.70;52.71;97225.09;4203448;28;5857;-73
2022/07/01 11:41:27;;;;;;;;;;;;;;;22.68;52.27;97228.03;4225694;27;5781;-73
2022/07/01 11:43:32;;;;;;;;;;;;;;;22.68;52.54;97219.97;4199678;28;5787;-73
2022/07/01 11:45:36;;;;;;;;;;;;;;;22.71;52.36;97226.69;4199293;28;5949;-73
2022/07/01 11:47:39;;;;;;;;;;;;;;;22.73;52.20;97211.09;4214622;28;5822;-73
2022/07/01 11:49:46;;;;;;;;;;;;;;;22.74;52.19;97210.81;4216354;28;5766;-73
2022/07/01 11:51:57;;;;;;;;;;;;;;;22.72;52.17;97204.88;4215283;28;5785;-72
2022/07/01 11:54:00;;;;;;;;;;;;;;;22.71;51.71;97207.84;4231414;28;5749;-73
2022/07/01 11:56:05;;;;;;;;;;;;;;;22.70;51.84;97206.22;4208126;28;5850;-72
2022/07/01 11:58:08;;;;;;;;;;;;;;;22.71;51.59;97199.75;4208700;28;5745;-72
2022/07/01 12:00:13;;;;;;;;;;;;;;;22.73;51.59;97206.50;4215518;28;5825;-73
2022/07/01 12:02:24;;;;;;;;;;;;;;;22.74;51.73;97208.13;4203579;28;5890;-73
2022/07/01 12:04:31;;;;;;;;;;;;;;;22.75;51.75;97200.84;4216087;28;5769;-74
2022/07/01 12:06:38;;;;;;;;;;;;;;;22.75;51.11;97207.03;4215260;28;5717;-73
2022/07/01 12:08:44;;;;;;;;;;;;;;;22.75;51.44;97201.66;4199904;28;5877;-73
2022/07/01 12:10:47;;;;;;;;;;;;;;;22.78;50.96;97205.75;4213235;27;5796;-68
2022/07/01 12:12:50;;;;;;;;;;;;;;;22.76;51.25;97210.56;4218088;28;5753;-67
2022/07/01 12:14:55;;;;;;;;;;;;;;;22.76;51.08;97207.84;4216700;28;5765;-67
2022/07/01 12:17:01;;;;;;;;;;;;;;;22.75;51.14;97204.34;4218002;28;5773;-68
2022/07/01 12:19:04;;;;;;;;;;;;;;;22.74;51.28;97200.03;4216233;28;5789;-68
2022/07/01 12:21:07;;;;;;;;;;;;;;;22.74;50.66;97196.53;4211950;28;5870;-69
2022/07/01 12:23:13;;;;;;;;;;;;;;;22.74;50.95;97199.22;4214631;28;5758;-68
2022/07/01 12:25:17;;;;;;;;;;;;;;;22.77;51.00;97196.03;4211125;28;5785;-67
2022/07/01 12:27:22;;;;;;;;;;;;;;;22.83;50.90;97192.28;4220629;28;5741;-70
2022/07/01 12:29:27;;;;;;;;;;;;;;;22.90;50.90;97198.28;4215873;28;5927;-68
2022/07/01 12:31:30;;;;;;;;;;;;;;;22.94;50.80;97193.97;4221547;28;5756;-70
2022/07/01 12:33:34;;;;;;;;;;;;;;;22.93;50.30;97197.75;4225251;27;5880;-68
2022/07/01 12:35:42;;;;;;;;;;;;;;;22.94;50.08;97193.97;4214632;28;5928;-73
2022/07/01 12:37:47;;;;;;;;;;;;;;;22.97;50.35;97198.84;4234593;27;5736;-73
2022/07/01 12:39:51;;;;;;;;;;;;;;;22.97;50.03;97198.84;4220610;27;5809;-73
2022/07/01 12:41:58;;;;;;;;;;;;;;;22.95;50.18;97201.81;4209160;28;5704;-70
2022/07/01 12:44:01;;;;;;;;;;;;;;;22.94;50.04;97192.09;4216827;28;5683;-68
2022/07/01 12:46:04;;;;;;;;;;;;;;;22.94;49.85;97191.28;4216513;28;5675;-67
2022/07/01 12:48:08;;;;;;;;;;;;;;;22.96;49.97;97191.81;4217162;28;5770;-70
2022/07/01 12:50:17;;;;;;;;;;;;;;;22.97;49.80;97193.44;4211866;28;5732;-70
2022/07/01 12:52:27;;;;;;;;;;;;;;;22.98;49.83;97202.34;4211827;28;5715;-70
2022/07/01 12:54:32;;;;;;;;;;;;;;;22.95;50.04;97190.22;4214736;28;5877;-68
2022/07/01 12:56:35;;;;;;;;;;;;;;;22.95;49.99;97187.50;4214779;28;5695;-69
2022/07/01 12:58:41;;;;;;;;;;;;;;;22.95;49.73;97191.03;4215509;28;5747;-74
2022/07/01 13:00:46;;;;;;;;;;;;;;;22.98;49.65;97192.38;4217853;28;5767;-71
2022/07/01 13:02:52;;;;;;;;;;;;;;;23.01;49.54;97193.75;4211390;28;5685;-72
2022/07/01 13:04:55;;;;;;;;;;;;;;;23.05;49.93;97194.84;4228400;28;5654;-74
2022/07/01 13:07:01;;;;;;;;;;;;;;;23.06;49.54;97199.97;4233091;27;5654;-74
2022/07/01 13:09:05;;;;;;;;;;;;;;;23.08;49.18;97195.13;4217004;28;5839;-73
2022/07/01 13:11:09;;;;;;;;;;;;;;;23.09;49.57;97191.34;4211495;28;5871;-71
2022/07/01 13:13:13;;;;;;;;;;;;;;;23.12;49.47;97190.84;4214970;28;5737;-68
2022/07/01 13:15:19;;;;;;;;;;;;;;;23.13;49.11;97200.56;4216642;28;5664;-68
2022/07/01 13:17:22;;;;;;;;;;;;;;;23.12;49.38;97201.63;4229774;27;5868;-71
2022/07/01 13:19:26;;;;;;;;;;;;;;;23.13;48.95;97197.03;4218985;28;5812;-73
2022/07/01 13:21:30;;;;;;;;;;;;;;;23.13;49.33;97203.25;4232195;28;5657;-76
2022/07/01 13:23:34;;;;;;;;;;;;;;;23.16;49.01;97205.41;4215368;28;5747;-75
2022/07/01 13:25:44;;;;;;;;;;;;;;;23.19;49.20;97215.66;4214716;28;5905;-65
2022/07/01 13:27:47;;;;;;;;;;;;;;;23.15;49.10;97209.19;4206434;28;5724;-72
2022/07/01 13:29:50;;;;;;;;;;;;;;;23.14;48.99;97210.25;4212075;28;5891;-71
2022/07/01 13:31:54;;;;;;;;;;;;;;;23.11;49.21;97202.69;4205639;28;5768;-72
2022/07/01 13:33:57;;;;;;;;;;;;;;;23.13;49.11;97202.44;4216250;28;6364;-72
2022/07/01 13:36:00;;;;;;;;;;;;;;;23.14;48.85;97195.97;4217024;28;5802;-72
2022/07/01 13:38:03;;;;;;;;;;;;;;;23.19;48.86;97207.56;4218811;28;5778;-72
2022/07/01 13:40:08;;;;;;;;;;;;;;;23.22;48.87;97198.97;4212057;28;6415;-72
2022/07/01 13:42:11;;;;;;;;;;;;;;;23.24;48.81;97191.41;4217405;28;5730;-69
2022/07/01 13:44:14;;;;;;;;;;;;;;;23.27;48.92;97200.06;4209464;28;5677;-70
2022/07/01 13:46:17;;;;;;;;;;;;;;;23.27;48.62;97200.88;4215273;28;5786;-70
2022/07/01 13:48:22;;;;;;;;;;;;;;;23.27;48.77;97198.16;4219877;28;5664;-70
2022/07/01 13:50:25;;;;;;;;;;;;;;;23.27;48.50;97203.56;4208866;28;5691;-70
2022/07/01 13:52:29;;;;;;;;;;;;;;;23.27;48.96;97200.88;4216127;28;6167;-70
2022/07/01 13:54:31;;;;;;;;;;;;;;;23.28;48.84;97209.78;4218263;28;5727;-67
2022/07/01 13:56:35;;;;;;;;;;;;;;;23.29;48.55;97206.81;4207767;28;5700;-71
2022/07/01 13:58:38;;;;;;;;;;;;;;;23.34;48.23;97208.72;4212874;28;5739;-78
2022/07/01 14:00:41;;;;;;;;;;;;;;;23.36;48.72;97201.19;4218503;28;5804;-72
2022/07/01 14:02:44;;;;;;;;;;;;;;;23.38;48.52;97210.63;4212293;28;5680;-70
2022/07/01 14:04:49;;;;;;;;;;;;;;;23.39;48.54;97211.44;4211164;28;5850;-68
2022/07/01 14:06:52;;;;;;;;;;;;;;;23.37;48.16;97208.19;4211353;28;5792;-72
2022/07/01 14:08:55;;;;;;;;;;;;;;;23.36;48.35;97209.25;4214881;28;5712;-68
2022/07/01 14:10:58;;;;;;;;;;;;;;;23.38;48.31;97201.72;4219485;28;5664;-69
2022/07/01 14:13:01;;;;;;;;;;;;;;;23.37;48.32;97203.59;4221087;28;5925;-71
2022/07/01 14:15:05;;;;;;;;;;;;;;;23.37;48.16;97206.31;4230298;28;5813;-78
2022/07/01 14:17:08;;;;;;;;;;;;;;;23.38;48.47;97210.63;4225142;27;5642;-73
2022/07/01 14:19:11;;;;;;;;;;;;;;;23.41;48.15;97211.97;4224671;28;6504;-75
2022/07/01 14:21:15;;;;;;;;;;;;;;;23.44;47.92;97203.34;4216512;28;5809;-73
2022/07/01 14:23:18;;;;;;;;;;;;;;;23.47;47.81;97202.81;4217149;28;6897;-72
2022/07/01 14:25:23;;;;;;;;;;;;;;;23.46;47.63;97202.03;4215984;28;5822;-70
2022/07/01 14:27:26;;;;;;;;;;;;;;;23.47;48.19;97211.72;4218684;28;5816;-71
2022/07/01 14:29:31;;;;;;;;;;;;;;;23.49;47.77;97208.75;4213988;28;5814;-67
2022/07/01 14:31:35;;;;;;;;;;;;;;;23.50;48.00;97213.09;4226287;28;5816;-67
2022/07/01 14:33:41;;;;;;;;;;;;;;;23.51;47.66;97214.69;4222044;28;6538;-71
2022/07/01 14:35:44;;;;;;;;;;;;;;;23.52;47.61;97219.03;4220748;28;5654;-72
2022/07/01 14:37:48;;;;;;;;;;;;;;;23.54;47.52;97214.97;4228489;27;5844;-71
2022/07/01 14:39:55;;;;;;;;;;;;;;;23.52;47.77;97217.13;4225833;27;5806;-70
2022/07/01 14:41:58;;;;;;;;;;;;;;;23.54;47.63;97219.56;4215608;28;5802;-67
2022/07/01 14:44:01;;;;;;;;;;;;;;;23.57;47.24;97213.66;4218586;28;5717;-66
2022/07/01 14:46:08;;;;;;;;;;;;;;;23.59;47.57;97216.13;4223854;28;5653;-66
2022/07/01 14:48:11;;;;;;;;;;;;;;;23.61;47.22;97220.16;4223079;28;5996;-66
2022/07/01 14:50:14;;;;;;;;;;;;;;;23.60;47.49;97213.16;4227679;28;5797;-67
2022/07/01 14:52:18;;;;;;;;;;;;;;;23.61;47.17;97220.16;4219998;27;5563;-68
2022/07/01 14:54:22;;;;;;;;;;;;;;;23.62;47.46;97215.56;4217567;28;5659;-71
2022/07/01 14:56:25;;;;;;;;;;;;;;;23.63;46.93;97217.19;4232098;28;6347;-76
2022/07/01 14:58:31;;;;;;;;;;;;;;;23.63;47.28;97218.00;4217991;28;5758;-75
2022/07/01 15:00:36;;;;;;;;;;;;;;;23.61;46.77;97209.38;4227662;28;5678;-76
2022/07/01 15:02:40;;;;;;;;;;;;;;;23.61;46.85;97212.06;4220720;28;5683;-73
2022/07/01 15:04:43;;;;;;;;;;;;;;;23.61;47.18;97219.34;4226003;27;5710;-77
2022/07/01 15:06:47;;;;;;;;;;;;;;;23.61;47.16;97213.97;4228852;27;5776;-74
2022/07/01 15:08:50;;;;;;;;;;;;;;;23.62;46.76;97216.38;4217940;28;5668;-74
2022/07/01 15:11:02;;;;;;;;;;;;;;;23.63;47.00;97218.00;4218912;28;5766;-74
2022/07/01 15:13:05;;;;;;;;;;;;;;;23.66;47.13;97222.06;4217282;28;5658;-74
2022/07/01 15:15:09;;;;;;;;;;;;;;;23.69;46.68;97221.53;4217356;28;5754;-77
2022/07/01 15:17:15;;;;;;;;;;;;;;;23.66;46.62;97222.84;4221229;28;5727;-74
2022/07/01 15:19:20;;;;;;;;;;;;;;;23.63;47.00;97220.69;4219054;28;5769;-76
2022/07/01 15:21:25;;;;;;;;;;;;;;;23.66;46.92;97217.47;4217811;28;5835;-73
2022/07/01 15:23:29;;;;;;;;;;;;;;;23.66;47.08;97214.75;4222338;28;5688;-68
2022/07/01 15:25:32;;;;;;;;;;;;;;;23.69;46.96;97216.94;4218727;28;6557;-75
2022/07/01 15:27:36;;;;;;;;;;;;;;;23.70;46.80;97215.88;4227352;27;5737;-69
2022/07/01 15:29:40;;;;;;;;;;;;;;;23.71;46.57;97209.38;4205847;28;5667;-69
2022/07/01 15:31:43;;;;;;;;;;;;;;;23.72;46.63;97213.72;4213289;28;5668;-69
2022/07/01 15:33:54;;;;;;;;;;;;;;;23.71;46.73;97212.09;4217185;28;5743;-68
2022/07/01 15:35:57;;;;;;;;;;;;;;;23.70;46.97;97202.38;4211573;28;5124;-71
2022/07/01 15:38:00;;;;;;;;;;;;;;;23.72;46.67;97197.50;4213378;28;5762;-70
2022/07/01 15:40:05;;;;;;;;;;;;;;;23.72;46.80;97200.22;4209281;28;5747;-66
2022/07/01 15:42:08;;;;;;;;;;;;;;;23.73;46.50;97207.22;4210018;28;5698;-69
2022/07/01 15:44:13;;;;;;;;;;;;;;;23.75;46.69;97207.78;4215327;28;5803;-69
2022/07/01 15:46:17;;;;;;;;;;;;;;;23.78;46.60;97204.56;4214090;28;5781;-80
2022/07/01 15:48:19;;;;;;;;;;;;;;;23.81;46.37;97203.22;4215998;28;6088;-70
2022/07/01 15:50:23;;;;;;;;;;;;;;;23.81;46.43;97201.31;4217640;28;5119;-71
2022/07/01 15:52:26;;;;;;;;;;;;;;;23.83;46.50;97197.53;4219813;28;5770;-81
2022/07/01 15:54:30;;;;;;;;;;;;;;;23.83;46.52;97202.94;4218575;28;5807;-78
2022/07/01 15:56:35;;;;;;;;;;;;;;;23.81;46.00;97192.41;4222892;28;5798;-68
2022/07/01 15:58:38;;;;;;;;;;;;;;;23.83;45.93;97197.53;4221648;28;7808;-74
2022/07/01 16:00:44;;;;;;;;;;;;;;;23.83;46.08;97184.03;4222600;28;5675;-73
2022/07/01 16:02:47;;;;;;;;;;;;;;;23.81;46.11;97185.13;4217453;28;5896;-73
2022/07/01 16:04:53;;;;;;;;;;;;;;;23.83;45.82;97184.84;4226318;27;5671;-72
2022/07/01 16:06:56;;;;;;;;;;;;;;;23.82;46.43;97183.22;4215630;27;5675;-71
2022/07/01 16:09:03;;;;;;;;;;;;;;;23.83;46.31;97184.84;4217849;28;5672;-70
2022/07/01 16:11:08;;;;;;;;;;;;;;;23.84;46.05;97177.56;4214375;28;5819;-70
2022/07/01 16:13:13;;;;;;;;;;;;;;;23.83;46.36;97173.25;4215017;28;5700;-69
2022/07/01 16:15:16;;;;;;;;;;;;;;;23.80;46.38;97170.00;4213546;28;5696;-68
2022/07/01 16:17:24;;;;;;;;;;;;;;;23.84;45.95;97174.84;4210463;28;5678;-72
2022/07/01 16:19:28;;;;;;;;;;;;;;;23.86;45.92;97167.28;4213650;28;5927;-72
2022/07/01 16:21:32;;;;;;;;;;;;;;;23.88;45.97;97165.13;4207938;28;5772;-67
2022/07/01 16:23:36;;;;;;;;;;;;;;;23.90;45.93;97166.50;4211449;28;5913;-68
2022/07/01 16:25:40;;;;;;;;;;;;;;;23.91;45.69;97165.41;4212815;28;7738;-74